createdAt,value
2022-12-08T00:02:17.483Z,-1.57
2022-12-08T00:05:03.122Z,-1.61
2022-12-08T00:07:48.068Z,-1.61
2022-12-08T00:10:49.667Z,-1.48
2022-12-08T00:13:35.262Z,-1.40
2022-12-08T00:16:20.193Z,-1.39
2022-12-08T00:19:05.698Z,-1.27
2022-12-08T00:21:50.392Z,-1.28
2022-12-08T00:24:35.285Z,-1.23
2022-12-08T00:27:20.050Z,-1.26
2022-12-08T00:30:04.966Z,-1.36
2022-12-08T00:32:49.519Z,-1.48
2022-12-08T00:35:37.597Z,-1.50
2022-12-08T00:38:26.293Z,-1.58
2022-12-08T00:41:10.996Z,-1.52
2022-12-08T00:43:55.683Z,-1.48
2022-12-08T00:46:40.497Z,-1.37
2022-12-08T00:49:26.547Z,-1.36
2022-12-08T00:52:11.647Z,-1.23
2022-12-08T00:54:56.400Z,-1.10
2022-12-08T00:57:41.116Z,-1.04
2022-12-08T01:00:25.863Z,-1.08
2022-12-08T01:03:10.656Z,-1.12
2022-12-08T01:05:55.535Z,-1.20
2022-12-08T01:08:40.265Z,-1.20
2022-12-08T01:11:25.023Z,-1.21
2022-12-08T01:14:09.699Z,-1.22
2022-12-08T01:16:54.544Z,-1.22
2022-12-08T01:19:39.588Z,-1.30
2022-12-08T01:22:24.334Z,-1.36
2022-12-08T01:25:08.990Z,-1.36
2022-12-08T01:27:53.698Z,-1.35
2022-12-08T01:30:38.358Z,-1.31
2022-12-08T01:33:23.129Z,-1.33
2022-12-08T01:36:07.860Z,-1.36
2022-12-08T01:38:52.650Z,-1.39
2022-12-08T01:41:37.461Z,-1.39
2022-12-08T01:44:22.141Z,-1.25
2022-12-08T01:47:06.917Z,-1.18
2022-12-08T01:49:51.766Z,-1.28
2022-12-08T01:52:36.624Z,-1.37
2022-12-08T01:55:21.354Z,-1.39
2022-12-08T01:58:06.014Z,-1.51
2022-12-08T02:00:50.781Z,-1.57
2022-12-08T02:03:35.558Z,-1.65
2022-12-08T02:06:20.274Z,-1.62
2022-12-08T02:09:04.995Z,-1.59
2022-12-08T02:11:49.778Z,-1.72
2022-12-08T02:14:34.461Z,-1.77
2022-12-08T02:17:19.258Z,-1.80
2022-12-08T02:20:04.339Z,-1.86
2022-12-08T02:22:49.479Z,-1.75
2022-12-08T02:25:34.132Z,-1.77
2022-12-08T02:28:19.006Z,-1.76
2022-12-08T02:31:03.787Z,-1.80
2022-12-08T02:33:48.447Z,-1.83
2022-12-08T02:36:33.237Z,-1.81
2022-12-08T02:39:18.049Z,-1.60
2022-12-08T02:42:02.867Z,-1.44
2022-12-08T02:44:47.570Z,-1.42
2022-12-08T02:47:32.324Z,-1.44
2022-12-08T02:50:16.998Z,-1.25
2022-12-08T02:53:01.731Z,-1.19
2022-12-08T02:55:46.400Z,-1.19
2022-12-08T02:58:31.225Z,-1.07
2022-12-08T03:01:15.940Z,-1.20
2022-12-08T03:04:00.784Z,-1.35
2022-12-08T03:06:45.395Z,-1.40
2022-12-08T03:09:30.096Z,-1.38
2022-12-08T03:12:14.888Z,-1.24
2022-12-08T03:14:59.654Z,-1.24
2022-12-08T03:17:44.518Z,-1.23
2022-12-08T03:20:29.247Z,-1.12
2022-12-08T03:23:14.095Z,-1.09
2022-12-08T03:25:58.810Z,-1.18
2022-12-08T03:28:43.734Z,-1.28
2022-12-08T03:31:28.431Z,-1.33
2022-12-08T03:34:13.126Z,-1.50
2022-12-08T03:36:57.870Z,-1.46
2022-12-08T03:39:42.574Z,-1.40
2022-12-08T03:42:27.283Z,-1.31
2022-12-08T03:45:11.977Z,-1.40
2022-12-08T03:47:56.775Z,-1.28
2022-12-08T03:50:41.507Z,-1.35
2022-12-08T03:53:26.299Z,-1.48
2022-12-08T03:56:10.980Z,-1.65
2022-12-08T03:58:55.722Z,-1.52
2022-12-08T04:01:40.341Z,-1.53
2022-12-08T04:04:25.215Z,-1.62
2022-12-08T04:07:09.923Z,-1.67
2022-12-08T04:09:54.647Z,-1.62
2022-12-08T04:12:39.428Z,-1.67
2022-12-08T04:15:24.258Z,-1.62
2022-12-08T04:18:09.085Z,-1.49
2022-12-08T04:20:53.774Z,-1.50
2022-12-08T04:23:38.499Z,-1.40
2022-12-08T04:26:23.171Z,-1.35
2022-12-08T04:29:08.044Z,-1.33
2022-12-08T04:31:52.819Z,-1.44
2022-12-08T04:34:37.890Z,-1.40
2022-12-08T04:37:22.686Z,-1.52
2022-12-08T04:40:07.575Z,-1.52
2022-12-08T04:42:52.784Z,-1.50
2022-12-08T04:45:37.538Z,-1.48
2022-12-08T04:48:22.299Z,-1.51
2022-12-08T04:51:06.856Z,-1.47
2022-12-08T04:53:51.783Z,-1.48
2022-12-08T04:56:36.394Z,-1.49
2022-12-08T04:59:21.269Z,-1.50
2022-12-08T05:02:06.123Z,-1.59
2022-12-08T05:04:51.424Z,-1.57
2022-12-08T05:07:36.237Z,-1.46
2022-12-08T05:10:20.811Z,-1.37
2022-12-08T05:13:05.702Z,-1.34
2022-12-08T05:15:50.609Z,-1.26
2022-12-08T05:18:35.286Z,-1.24
2022-12-08T05:21:19.890Z,-1.24
2022-12-08T05:24:04.743Z,-1.24
2022-12-08T05:26:49.484Z,-1.13
2022-12-08T05:29:34.241Z,-1.09
2022-12-08T05:32:18.966Z,-1.22
2022-12-08T05:35:03.770Z,-1.32
2022-12-08T05:37:48.496Z,-1.29
2022-12-08T05:40:33.219Z,-1.39
2022-12-08T05:43:18.111Z,-1.40
2022-12-08T05:46:02.741Z,-1.40
2022-12-08T05:48:47.549Z,-1.44
2022-12-08T05:51:32.263Z,-1.39
2022-12-08T05:54:17.112Z,-1.39
2022-12-08T05:57:01.803Z,-1.38
2022-12-08T05:59:46.643Z,-1.17
2022-12-08T06:02:31.676Z,-1.09
2022-12-08T06:05:16.773Z,-1.06
2022-12-08T06:08:01.649Z,-0.97
2022-12-08T06:10:46.178Z,-0.90
2022-12-08T06:13:31.086Z,-0.87
2022-12-08T06:16:15.849Z,-1.02
2022-12-08T06:19:00.663Z,-1.13
2022-12-08T06:21:45.393Z,-1.32
2022-12-08T06:24:30.128Z,-1.48
2022-12-08T06:27:14.922Z,-1.51
2022-12-08T06:29:59.768Z,-1.68
2022-12-08T06:32:44.522Z,-1.66
2022-12-08T06:35:29.211Z,-1.58
2022-12-08T06:38:13.976Z,-1.50
2022-12-08T06:40:58.625Z,-1.38
2022-12-08T06:43:43.453Z,-1.45
2022-12-08T06:46:28.255Z,-1.46
2022-12-08T06:49:13.135Z,-1.47
2022-12-08T06:51:57.687Z,-1.45
2022-12-08T06:54:42.483Z,-1.39
2022-12-08T06:57:27.242Z,-1.32
2022-12-08T07:00:12.098Z,-1.28
2022-12-08T07:02:56.803Z,-1.33
2022-12-08T07:05:41.546Z,-1.36
2022-12-08T07:08:26.588Z,-1.43
2022-12-08T07:11:15.270Z,-1.50
2022-12-08T07:14:02.865Z,-1.50
2022-12-08T07:16:47.798Z,-1.44
2022-12-08T07:19:32.582Z,-1.43
2022-12-08T07:22:17.460Z,-1.41
2022-12-08T07:25:02.044Z,-1.40
2022-12-08T07:27:46.781Z,-1.53
2022-12-08T07:30:31.477Z,-1.48
2022-12-08T07:33:16.334Z,-1.51
2022-12-08T07:36:00.974Z,-1.53
2022-12-08T07:38:45.796Z,-1.36
2022-12-08T07:41:30.547Z,-1.19
2022-12-08T07:44:15.233Z,-1.20
2022-12-08T07:46:59.898Z,-1.27
2022-12-08T07:49:44.573Z,-1.37
2022-12-08T07:52:29.358Z,-1.17
2022-12-08T07:55:13.847Z,-1.01
2022-12-08T07:57:58.669Z,-0.91
2022-12-08T08:00:43.522Z,-0.88
2022-12-08T08:03:28.272Z,-0.70
2022-12-08T08:06:12.951Z,-0.47
2022-12-08T08:08:57.625Z,-0.43
2022-12-08T08:11:43.040Z,-0.29
2022-12-08T08:14:28.235Z,-0.19
2022-12-08T08:17:13.158Z,-0.05
2022-12-08T08:19:58.240Z,0.06
2022-12-08T08:22:42.987Z,0.19
2022-12-08T08:25:27.593Z,0.32
2022-12-08T08:28:12.542Z,0.42
2022-12-08T08:30:57.383Z,0.36
2022-12-08T08:33:42.213Z,0.41
2022-12-08T08:36:26.921Z,0.41
2022-12-08T08:39:11.789Z,0.65
2022-12-08T08:41:56.534Z,0.72
2022-12-08T08:44:41.335Z,0.80
2022-12-08T08:47:26.266Z,0.96
2022-12-08T08:50:10.883Z,1.08
2022-12-08T08:52:55.687Z,1.37
2022-12-08T08:55:40.387Z,1.56
2022-12-08T08:58:25.151Z,1.70
2022-12-08T09:01:09.744Z,1.94
2022-12-08T09:03:54.541Z,2.28
2022-12-08T09:06:39.212Z,2.60
2022-12-08T09:09:23.932Z,2.76
2022-12-08T09:12:08.878Z,2.86
2022-12-08T09:14:53.782Z,2.93
2022-12-08T09:17:38.650Z,3.11
2022-12-08T09:20:23.342Z,3.15
2022-12-08T09:23:08.242Z,3.14
2022-12-08T09:25:52.913Z,3.04
2022-12-08T09:28:37.676Z,2.93
2022-12-08T09:31:22.431Z,2.93
2022-12-08T09:34:07.195Z,3.05
2022-12-08T09:36:51.968Z,3.17
2022-12-08T09:39:36.779Z,2.94
2022-12-08T09:42:21.516Z,2.69
2022-12-08T09:45:06.269Z,2.42
2022-12-08T09:47:51.071Z,2.30
2022-12-08T09:50:35.872Z,2.33
2022-12-08T09:53:20.626Z,2.62
2022-12-08T09:56:05.408Z,2.76
2022-12-08T09:58:50.320Z,3.00
2022-12-08T10:01:35.255Z,3.01
2022-12-08T10:04:20.585Z,3.26
2022-12-08T10:07:05.510Z,3.47
2022-12-08T10:09:50.440Z,3.51
2022-12-08T10:12:35.242Z,3.72
2022-12-08T10:15:19.910Z,3.84
2022-12-08T10:18:04.711Z,3.95
2022-12-08T10:20:49.347Z,4.07
2022-12-08T10:23:34.130Z,4.12
2022-12-08T10:26:18.823Z,4.06
2022-12-08T10:29:03.651Z,3.84
2022-12-08T10:31:48.495Z,3.77
2022-12-08T10:34:33.767Z,3.79
2022-12-08T10:37:18.644Z,3.67
2022-12-08T10:40:04.150Z,3.58
2022-12-08T10:42:49.509Z,3.55
2022-12-08T10:45:34.261Z,3.50
2022-12-08T10:48:18.961Z,3.59
2022-12-08T10:51:03.658Z,3.74
2022-12-08T10:53:48.476Z,3.81
2022-12-08T10:56:33.130Z,3.82
2022-12-08T10:59:18.007Z,3.79
2022-12-08T11:02:02.986Z,3.88
2022-12-08T11:04:48.119Z,3.64
2022-12-08T11:07:32.895Z,3.76
2022-12-08T11:10:17.628Z,3.65
2022-12-08T11:13:02.405Z,3.58
2022-12-08T11:15:47.099Z,3.60
2022-12-08T11:18:32.022Z,3.57
2022-12-08T11:21:16.643Z,3.67
2022-12-08T11:24:01.475Z,3.81
2022-12-08T11:26:46.309Z,3.99
2022-12-08T11:29:31.088Z,4.16
2022-12-08T11:32:15.864Z,4.16
2022-12-08T11:35:00.640Z,4.31
2022-12-08T11:37:45.515Z,4.38
2022-12-08T11:40:30.303Z,4.40
2022-12-08T11:43:15.130Z,4.57
2022-12-08T11:46:00.033Z,4.74
2022-12-08T11:48:45.331Z,4.71
2022-12-08T11:51:30.110Z,4.80
2022-12-08T11:54:14.974Z,4.87
2022-12-08T11:57:00.159Z,5.01
2022-12-08T11:59:44.855Z,5.03
2022-12-08T12:02:29.804Z,5.09
2022-12-08T12:05:17.431Z,5.12
2022-12-08T12:08:08.827Z,5.15
2022-12-08T12:10:53.710Z,5.29
2022-12-08T12:13:38.543Z,5.42
2022-12-08T12:16:23.497Z,5.48
2022-12-08T12:19:08.721Z,5.45
2022-12-08T12:21:53.498Z,5.60
2022-12-08T12:24:38.286Z,5.51
2022-12-08T12:27:22.932Z,5.21
2022-12-08T12:30:08.113Z,5.11
2022-12-08T12:32:52.950Z,5.02
2022-12-08T12:35:37.781Z,5.03
2022-12-08T12:38:22.512Z,5.07
2022-12-08T12:41:07.248Z,5.01
2022-12-08T12:43:52.063Z,5.09
2022-12-08T12:46:36.905Z,5.08
2022-12-08T12:49:21.721Z,5.21
2022-12-08T12:52:06.523Z,5.37
2022-12-08T12:54:51.352Z,5.48
2022-12-08T12:57:36.187Z,5.42
2022-12-08T13:00:21.304Z,5.14
2022-12-08T13:03:06.389Z,5.16
2022-12-08T13:05:51.608Z,5.20
2022-12-08T13:08:36.507Z,5.31
2022-12-08T13:11:21.252Z,5.42
2022-12-08T13:14:06.180Z,5.49
2022-12-08T13:16:50.886Z,5.60
2022-12-08T13:19:35.556Z,5.66
2022-12-08T13:22:20.467Z,5.64
2022-12-08T13:25:05.377Z,5.62
2022-12-08T13:27:49.939Z,5.61
2022-12-08T13:30:34.800Z,5.66
2022-12-08T13:33:19.650Z,5.75
2022-12-08T13:36:04.874Z,5.80
2022-12-08T13:38:49.674Z,5.72
2022-12-08T13:41:34.204Z,5.62
2022-12-08T13:47:33.932Z,5.44
2022-12-08T13:59:34.205Z,5.32
2022-12-08T14:02:18.950Z,5.24
2022-12-08T14:05:21.860Z,5.10
2022-12-08T14:08:08.884Z,5.03
2022-12-08T14:10:53.595Z,4.97
2022-12-08T14:13:38.322Z,4.95
2022-12-08T14:16:23.095Z,4.89
2022-12-08T14:19:08.048Z,4.88
2022-12-08T14:21:52.802Z,4.82
2022-12-08T14:24:37.633Z,4.77
2022-12-08T14:27:22.566Z,4.66
2022-12-08T14:30:07.372Z,4.63
2022-12-08T14:32:52.585Z,4.50
2022-12-08T14:35:37.413Z,4.40
2022-12-08T14:38:22.138Z,4.30
2022-12-08T14:41:07.522Z,4.30
2022-12-08T14:43:52.202Z,4.26
2022-12-08T14:46:36.807Z,4.16
2022-12-08T14:49:21.495Z,3.99
2022-12-08T14:52:06.186Z,4.05
2022-12-08T14:54:51.088Z,4.14
2022-12-08T14:57:35.874Z,4.10
2022-12-08T15:00:20.711Z,4.09
2022-12-08T15:03:05.555Z,4.07
2022-12-08T15:05:50.142Z,4.10
2022-12-08T15:08:34.950Z,4.04
2022-12-08T15:11:19.763Z,3.93
2022-12-08T15:14:04.395Z,3.91
2022-12-08T15:16:49.211Z,3.76
2022-12-08T15:19:34.001Z,3.62
2022-12-08T15:22:18.897Z,3.62
2022-12-08T15:25:03.658Z,3.64
2022-12-08T15:27:50.735Z,3.65
2022-12-08T15:30:36.063Z,3.63
2022-12-08T15:33:20.791Z,3.58
2022-12-08T15:36:05.501Z,3.57
2022-12-08T15:38:50.375Z,3.51
2022-12-08T15:41:35.165Z,3.40
2022-12-08T15:44:20.125Z,3.27
2022-12-08T15:47:04.810Z,3.12
2022-12-08T15:49:49.539Z,3.17
2022-12-08T15:52:34.291Z,3.29
2022-12-08T15:55:19.000Z,3.41
2022-12-08T15:58:51.995Z,3.38
2022-12-08T16:01:08.755Z,3.46
2022-12-08T16:07:21.481Z,3.44
2022-12-08T16:10:04.771Z,3.34
2022-12-08T16:13:54.764Z,3.30
2022-12-08T16:16:00.281Z,3.23
2022-12-08T16:18:45.699Z,3.16
2022-12-08T16:22:04.673Z,3.18
2022-12-08T16:24:35.245Z,3.18
2022-12-08T16:27:59.250Z,3.20
2022-12-08T16:30:24.984Z,3.14
2022-12-08T16:33:09.790Z,3.00
2022-12-08T16:35:54.705Z,2.97
2022-12-08T16:38:39.503Z,2.88
2022-12-08T16:41:24.373Z,2.96
2022-12-08T16:44:08.978Z,2.93
2022-12-08T16:46:53.898Z,2.80
2022-12-08T16:49:38.509Z,2.78
2022-12-08T16:52:23.347Z,2.87
2022-12-08T16:55:08.034Z,2.73
2022-12-08T16:57:53.309Z,2.60
2022-12-08T17:00:38.223Z,2.59
2022-12-08T17:03:24.212Z,2.71
2022-12-08T17:06:08.946Z,2.76
2022-12-08T17:08:53.594Z,2.83
2022-12-08T17:11:43.089Z,2.75
2022-12-08T17:14:28.774Z,2.73
2022-12-08T17:17:13.400Z,2.79
2022-12-08T17:19:58.307Z,2.84
2022-12-08T17:22:42.958Z,2.83
2022-12-08T17:25:27.800Z,2.87
2022-12-08T17:28:12.491Z,2.92
2022-12-08T17:30:57.341Z,2.85
2022-12-08T17:33:41.982Z,2.90
2022-12-08T17:36:26.675Z,2.91
2022-12-08T17:39:17.833Z,2.82
2022-12-08T17:42:03.442Z,2.93
2022-12-08T17:44:48.023Z,2.99
2022-12-08T17:47:32.891Z,2.97
2022-12-08T17:50:17.558Z,3.04
2022-12-08T17:53:02.324Z,3.02
2022-12-08T17:55:47.025Z,2.99
2022-12-08T17:58:31.943Z,2.97
2022-12-08T18:01:16.801Z,2.87
2022-12-08T18:04:01.502Z,2.75
2022-12-08T18:06:46.250Z,2.60
2022-12-08T18:09:31.238Z,2.62
2022-12-08T18:12:22.294Z,2.69
2022-12-08T18:15:08.235Z,2.67
2022-12-08T18:17:52.914Z,2.59
2022-12-08T18:20:37.662Z,2.65
2022-12-08T18:23:22.384Z,2.71
2022-12-08T18:26:07.226Z,2.78
2022-12-08T18:28:52.035Z,2.74
2022-12-08T18:31:36.870Z,2.62
2022-12-08T18:34:21.608Z,2.59
2022-12-08T18:37:06.290Z,2.51
2022-12-08T18:39:51.106Z,2.54
2022-12-08T18:42:35.847Z,2.62
2022-12-08T18:45:22.409Z,2.59
2022-12-08T18:48:07.773Z,2.41
2022-12-08T18:50:52.646Z,2.24
2022-12-08T18:53:37.320Z,2.24
2022-12-08T18:56:22.113Z,2.28
2022-12-08T18:59:07.017Z,2.34
2022-12-08T19:01:51.862Z,2.41
2022-12-08T19:04:38.843Z,2.43
2022-12-08T19:07:23.869Z,2.51
2022-12-08T19:10:08.906Z,2.53
2022-12-08T19:12:53.915Z,2.55
2022-12-08T19:15:38.780Z,2.49
2022-12-08T19:18:23.573Z,2.51
2022-12-08T19:21:08.321Z,2.50
2022-12-08T19:23:53.150Z,2.43
2022-12-08T19:26:37.984Z,2.33
2022-12-08T19:29:22.891Z,2.37
2022-12-08T19:32:07.496Z,2.43
2022-12-08T19:34:52.235Z,2.46
2022-12-08T19:37:37.040Z,2.47
2022-12-08T19:40:21.615Z,2.53
2022-12-08T19:43:06.511Z,2.56
2022-12-08T19:45:51.338Z,2.56
2022-12-08T19:48:36.502Z,2.51
2022-12-08T19:51:21.208Z,2.50
2022-12-08T19:54:05.909Z,2.58
2022-12-08T19:56:50.611Z,2.60
2022-12-08T19:59:35.427Z,2.53
2022-12-08T20:02:20.147Z,2.48
2022-12-08T20:05:05.358Z,2.57
2022-12-08T20:07:50.182Z,2.67
2022-12-08T20:10:34.895Z,2.64
2022-12-08T20:13:19.641Z,2.68
2022-12-08T20:16:04.476Z,2.64
2022-12-08T20:18:49.235Z,2.64
2022-12-08T20:21:34.036Z,2.70
2022-12-08T20:24:18.986Z,2.76
2022-12-08T20:27:03.599Z,2.81
2022-12-08T20:29:48.420Z,2.81
2022-12-08T20:32:33.157Z,2.77
2022-12-08T20:35:18.017Z,2.80
2022-12-08T20:38:02.657Z,2.76
2022-12-08T20:40:47.409Z,2.80
2022-12-08T20:43:32.091Z,2.78
2022-12-08T20:46:16.929Z,2.73
2022-12-08T20:49:02.211Z,2.80
2022-12-08T20:51:47.357Z,2.73
2022-12-08T20:54:32.179Z,2.76
2022-12-08T20:57:16.875Z,2.80
2022-12-08T21:00:01.731Z,2.85
2022-12-08T21:02:50.856Z,2.91
2022-12-08T21:05:39.532Z,2.85
2022-12-08T21:08:24.878Z,2.86
2022-12-08T21:11:10.024Z,2.98
2022-12-08T21:13:54.923Z,2.94
2022-12-08T21:16:40.152Z,2.98
2022-12-08T21:19:25.228Z,3.02
2022-12-08T21:22:10.186Z,3.10
2022-12-08T21:24:55.448Z,3.13
2022-12-08T21:27:40.035Z,3.15
2022-12-08T21:30:24.902Z,3.16
2022-12-08T21:33:10.234Z,3.23
2022-12-08T21:35:55.463Z,3.25
2022-12-08T21:38:40.159Z,3.28
2022-12-08T21:41:24.974Z,3.27
2022-12-08T21:44:09.612Z,3.22
2022-12-08T21:46:55.199Z,3.19
2022-12-08T21:49:40.473Z,3.17
2022-12-08T21:52:25.707Z,3.18
2022-12-08T21:55:10.736Z,3.20
2022-12-08T21:57:55.363Z,3.15
2022-12-08T22:00:40.261Z,3.15
2022-12-08T22:03:25.552Z,3.08
2022-12-08T22:06:10.831Z,3.16
2022-12-08T22:08:55.891Z,3.16
2022-12-08T22:11:41.103Z,3.21
2022-12-08T22:14:26.339Z,3.24
2022-12-08T22:17:11.261Z,3.34
2022-12-08T22:19:56.594Z,3.42
2022-12-08T22:22:41.775Z,3.55
2022-12-08T22:25:27.226Z,3.60
2022-12-08T22:28:12.582Z,3.61
2022-12-08T22:30:57.593Z,3.66
2022-12-08T22:33:42.621Z,3.69
2022-12-08T22:36:27.667Z,3.66
2022-12-08T22:39:12.740Z,3.61
2022-12-08T22:41:57.668Z,3.55
2022-12-08T22:44:42.395Z,3.59
2022-12-08T22:47:27.256Z,3.70
2022-12-08T22:50:12.370Z,3.77
2022-12-08T22:52:57.163Z,3.97
2022-12-08T22:55:42.217Z,4.07
2022-12-08T22:58:27.216Z,4.05
2022-12-08T23:01:11.934Z,4.00
2022-12-08T23:03:56.883Z,4.05
2022-12-08T23:06:41.956Z,4.03
2022-12-08T23:09:26.783Z,3.91
2022-12-08T23:12:11.716Z,3.88
2022-12-08T23:14:56.935Z,3.79
2022-12-08T23:17:42.177Z,3.88
2022-12-08T23:20:27.617Z,3.85
2022-12-08T23:23:13.051Z,3.79
2022-12-08T23:25:58.204Z,3.77
2022-12-08T23:28:43.188Z,3.78
2022-12-08T23:31:28.167Z,3.82
2022-12-08T23:34:13.406Z,3.81
2022-12-08T23:36:58.588Z,3.78
2022-12-08T23:39:43.295Z,3.79
2022-12-08T23:42:28.332Z,3.80
2022-12-08T23:45:13.437Z,3.81
2022-12-08T23:47:58.138Z,3.84
2022-12-08T23:50:42.833Z,3.90
2022-12-08T23:53:28.560Z,4.01
2022-12-08T23:56:13.390Z,4.08
2022-12-08T23:58:58.171Z,4.11
